Time;durP1;ratioP1;P1;durP2;ratioP2;P2;SDS_P1;SDS_P2;PMS_P1;PMS_P2;Temp;Humidity;BMP_temperature;BMP_pressure;BME280_temperature;BME280_humidity;BME280_pressure;Samples;Min_cycle;Max_cycle;Signal;HPM_P1;HPM_P2
2022/10/17 00:02:00;;;;;;;15.97;4.23;;;;;;;;;;5058897;28;20286;-70
2022/10/17 00:04:26;;;;;;;13.87;2.90;;;;;;;;;;5058086;28;20667;-70
2022/10/17 00:06:52;;;;;;;16.43;3.60;;;;;;;;;;5076519;28;20279;-70
2022/10/17 00:09:18;;;;;;;15.33;3.53;;;;;;;;;;5075800;28;20279;-70
2022/10/17 00:11:45;;;;;;;11.60;3.10;;;;;;;;;;5076633;28;20282;-70
2022/10/17 00:14:11;;;;;;;10.87;2.70;;;;;;;;;;5041634;28;20798;-70
2022/10/17 00:16:37;;;;;;;11.73;3.10;;;;;;;;;;5076190;28;20619;-70
2022/10/17 00:19:04;;;;;;;12.90;2.93;;;;;;;;;;5058078;28;20326;-70
2022/10/17 00:21:30;;;;;;;12.00;2.73;;;;;;;;;;5075622;28;20860;-70
2022/10/17 00:23:56;;;;;;;9.63;2.67;;;;;;;;;;5075632;28;20388;-70
2022/10/17 00:26:22;;;;;;;12.73;3.47;;;;;;;;;;5075497;28;20305;-70
2022/10/17 00:28:50;;;;;;;10.87;2.83;;;;;;;;;;5075711;28;20369;-70
2022/10/17 00:31:17;;;;;;;12.97;3.03;;;;;;;;;;5057099;28;20290;-70
2022/10/17 00:33:43;;;;;;;11.47;3.03;;;;;;;;;;5075354;28;20383;-70
2022/10/17 00:36:12;;;;;;;12.03;3.40;;;;;;;;;;5075357;28;20287;-70
2022/10/17 00:38:39;;;;;;;12.77;2.87;;;;;;;;;;5058071;28;20728;-70
2022/10/17 00:41:05;;;;;;;13.73;3.13;;;;;;;;;;5075253;28;20751;-70
2022/10/17 00:43:50;;;;;;;9.87;2.53;;;;;;;;;;5075213;28;20305;-70
2022/10/17 00:46:16;;;;;;;9.50;2.88;;;;;;;;;;5057248;28;20369;-70
2022/10/17 00:48:43;;;;;;;8.87;2.70;;;;;;;;;;5075039;28;20045;-70
2022/10/17 00:51:09;;;;;;;9.87;2.97;;;;;;;;;;5075097;28;20339;-70
2022/10/17 00:53:36;;;;;;;11.33;2.93;;;;;;;;;;5041399;28;20681;-70
2022/10/17 00:56:02;;;;;;;11.43;3.47;;;;;;;;;;5057357;28;20330;-70
2022/10/17 00:58:28;;;;;;;14.00;3.77;;;;;;;;;;5074734;28;20790;-70
2022/10/17 01:00:55;;;;;;;9.77;3.27;;;;;;;;;;5075365;28;20282;-71
2022/10/17 01:03:21;;;;;;;11.67;4.60;;;;;;;;;;5075087;28;20321;-75
2022/10/17 01:05:47;;;;;;;11.20;3.30;;;;;;;;;;5074814;28;20365;-70
2022/10/17 01:08:13;;;;;;;13.90;4.10;;;;;;;;;;5074712;28;20358;-70
2022/10/17 01:10:48;;;;;;;8.23;3.30;;;;;;;;;;5074623;28;20290;-70
2022/10/17 01:13:23;;;;;;;11.53;4.37;;;;;;;;;;5075193;28;20343;-70
2022/10/17 01:15:49;;;;;;;10.88;3.38;;;;;;;;;;5074663;28;20361;-70
2022/10/17 01:18:34;;;;;;;11.87;3.97;;;;;;;;;;5074382;28;20041;-70
2022/10/17 01:21:12;;;;;;;12.43;3.40;;;;;;;;;;5074131;28;20838;-70
2022/10/17 01:23:38;;;;;;;12.80;4.13;;;;;;;;;;5074336;28;20370;-70
2022/10/17 01:26:11;;;;;;;14.57;3.83;;;;;;;;;;5074989;28;20287;-70
2022/10/17 01:29:00;;;;;;;10.07;4.17;;;;;;;;;;5074318;28;20275;-70
2022/10/17 01:31:53;;;;;;;10.23;3.93;;;;;;;;;;5073944;28;20378;-71
2022/10/17 01:34:29;;;;;;;12.07;4.00;;;;;;;;;;5051798;28;20287;-70
2022/10/17 01:37:06;;;;;;;10.53;3.97;;;;;;;;;;5074388;28;20298;-70
2022/10/17 01:39:59;;;;;;;10.63;3.63;;;;;;;;;;5074286;28;20286;-70
2022/10/17 01:42:41;;;;;;;10.77;4.13;;;;;;;;;;5051855;28;20315;-70
2022/10/17 01:45:28;;;;;;;7.57;3.63;;;;;;;;;;5074057;28;20279;-70
2022/10/17 01:47:55;;;;;;;10.97;4.17;;;;;;;;;;5074118;28;20777;-70
2022/10/17 01:50:31;;;;;;;12.10;4.40;;;;;;;;;;5073921;28;20286;-70
2022/10/17 01:52:57;;;;;;;;;;;;;;;;;;5056739;28;20278;-70
2022/10/17 01:55:25;;;;;;;15.00;4.33;;;;;;;;;;5074448;28;20014;-70
2022/10/17 01:57:57;;;;;;;11.13;3.97;;;;;;;;;;5074462;28;20405;-70
2022/10/17 02:00:25;;;;;;;14.43;4.27;;;;;;;;;;5055483;28;20287;-70
2022/10/17 02:02:54;;;;;;;9.07;3.50;;;;;;;;;;5073554;28;20332;-70
2022/10/17 02:05:22;;;;;;;10.57;3.97;;;;;;;;;;5073634;28;20358;-71
2022/10/17 02:07:48;;;;;;;11.43;4.20;;;;;;;;;;5073608;28;20278;-70
2022/10/17 02:10:18;;;;;;;10.47;3.90;;;;;;;;;;5073560;28;20638;-70
2022/10/17 02:12:50;;;;;;;12.87;4.40;;;;;;;;;;5039701;28;20626;-70
2022/10/17 02:15:35;;;;;;;9.00;4.50;;;;;;;;;;5056184;28;20628;-70
2022/10/17 02:18:01;;;;;;;11.15;4.43;;;;;;;;;;5055549;28;20317;-70
2022/10/17 02:20:39;;;;;;;10.47;4.20;;;;;;;;;;5073492;28;20048;-70
2022/10/17 02:23:11;;;;;;;11.27;4.30;;;;;;;;;;5073262;28;20362;-70
2022/10/17 02:25:53;;;;;;;11.87;5.17;;;;;;;;;;5073233;28;20298;-70
2022/10/17 02:28:21;;;;;;;12.57;4.50;;;;;;;;;;5073361;28;20283;-70
2022/10/17 02:30:47;;;;;;;12.30;4.80;;;;;;;;;;5055725;28;20298;-70
2022/10/17 02:33:18;;;;;;;12.30;4.80;;;;;;;;;;5073285;28;20359;-70
2022/10/17 02:35:47;;;;;;;11.07;4.83;;;;;;;;;;5073196;28;20279;-70
2022/10/17 02:38:13;;;;;;;9.87;4.90;;;;;;;;;;5073723;28;20629;-70
2022/10/17 02:40:40;;;;;;;10.33;5.17;;;;;;;;;;5073282;28;20347;-71
2022/10/17 02:43:06;;;;;;;9.03;4.40;;;;;;;;;;5073297;28;20275;-70
2022/10/17 02:45:34;;;;;;;10.60;5.33;;;;;;;;;;5056347;28;20278;-76
2022/10/17 02:48:01;;;;;;;13.47;6.20;;;;;;;;;;5073191;28;20290;-70
2022/10/17 02:50:56;;;;;;;11.33;6.30;;;;;;;;;;5073209;28;20274;-70
2022/10/17 02:53:29;;;;;;;16.05;6.63;;;;;;;;;;5034555;28;20373;-70
2022/10/17 02:55:58;;;;;;;11.20;6.60;;;;;;;;;;5073419;28;20049;-70
2022/10/17 02:58:27;;;;;;;13.27;6.27;;;;;;;;;;5073005;28;20299;-70
2022/10/17 03:00:54;;;;;;;13.07;6.47;;;;;;;;;;5073555;28;20362;-70
2022/10/17 03:03:21;;;;;;;15.07;6.60;;;;;;;;;;5055348;28;20282;-70
2022/10/17 03:05:47;;;;;;;9.67;6.60;;;;;;;;;;5073507;28;20365;-70
2022/10/17 03:08:13;;;;;;;17.90;7.33;;;;;;;;;;5073825;28;20326;-70
2022/10/17 03:10:39;;;;;;;14.33;6.97;;;;;;;;;;5056384;28;20779;-71
2022/10/17 03:13:06;;;;;;;13.97;7.13;;;;;;;;;;5059232;28;20297;-70
2022/10/17 03:15:32;;;;;;;15.17;7.47;;;;;;;;;;5077090;28;20361;-70
2022/10/17 03:17:58;;;;;;;12.00;7.70;;;;;;;;;;5076804;28;20305;-70
2022/10/17 03:20:24;;;;;;;14.37;7.60;;;;;;;;;;5076835;28;20282;-70
2022/10/17 03:22:50;;;;;;;10.00;8.17;;;;;;;;;;5076936;28;20758;-70
2022/10/17 03:25:16;;;;;;;12.40;7.80;;;;;;;;;;5058984;28;20278;-70
2022/10/17 03:27:42;;;;;;;12.30;7.80;;;;;;;;;;5059714;28;20290;-70
2022/10/17 03:30:09;;;;;;;11.43;8.20;;;;;;;;;;5076252;28;20790;-70
2022/10/17 03:32:35;;;;;;;12.17;9.33;;;;;;;;;;5076835;28;20311;-70
2022/10/17 03:35:02;;;;;;;11.73;9.00;;;;;;;;;;5077253;28;20367;-70
2022/10/17 03:37:28;;;;;;;12.03;8.97;;;;;;;;;;5076422;28;20377;-70
2022/10/17 03:39:54;;;;;;;13.67;9.23;;;;;;;;;;5076635;28;20359;-70
2022/10/17 03:42:20;;;;;;;13.33;10.17;;;;;;;;;;5076350;28;20282;-70
2022/10/17 03:44:46;;;;;;;15.77;10.43;;;;;;;;;;5076370;28;20286;-70
2022/10/17 03:47:12;;;;;;;14.10;10.50;;;;;;;;;;5058441;28;20358;-70
2022/10/17 03:49:38;;;;;;;14.13;11.40;;;;;;;;;;5077067;28;20306;-70
2022/10/17 03:52:04;;;;;;;14.50;11.53;;;;;;;;;;5076168;28;20357;-70
2022/10/17 03:54:31;;;;;;;14.70;11.37;;;;;;;;;;5076135;28;20329;-70
2022/10/17 03:56:57;;;;;;;19.57;11.47;;;;;;;;;;5076574;28;20334;-70
2022/10/17 03:59:23;;;;;;;14.17;12.00;;;;;;;;;;5076612;28;20659;-70
2022/10/17 04:01:49;;;;;;;17.50;12.63;;;;;;;;;;5076073;28;20278;-70
2022/10/17 04:04:15;;;;;;;13.40;11.40;;;;;;;;;;5058653;28;20423;-70
2022/10/17 04:06:41;;;;;;;17.23;13.77;;;;;;;;;;5058007;28;20287;-70
2022/10/17 04:09:07;;;;;;;18.10;13.00;;;;;;;;;;5075914;28;20310;-70
2022/10/17 04:11:34;;;;;;;17.20;13.50;;;;;;;;;;5058690;28;20279;-70
2022/10/17 04:14:00;;;;;;;17.80;12.37;;;;;;;;;;5075577;28;20795;-70
2022/10/17 04:16:26;;;;;;;18.70;13.90;;;;;;;;;;5075987;28;20275;-70
2022/10/17 04:18:54;;;;;;;20.67;15.10;;;;;;;;;;5075590;28;20310;-70
2022/10/17 04:21:20;;;;;;;18.97;14.70;;;;;;;;;;5057684;28;20784;-70
2022/10/17 04:23:46;;;;;;;18.70;15.07;;;;;;;;;;5074994;28;20781;-71
2022/10/17 04:26:12;;;;;;;18.13;14.43;;;;;;;;;;5075565;28;20279;-70
2022/10/17 04:28:39;;;;;;;22.67;15.37;;;;;;;;;;5075514;28;20278;-70
2022/10/17 04:31:06;;;;;;;15.97;14.17;;;;;;;;;;5075659;28;20309;-70
2022/10/17 04:33:33;;;;;;;16.73;14.10;;;;;;;;;;5057705;28;20392;-70
2022/10/17 04:35:59;;;;;;;17.87;14.53;;;;;;;;;;5058512;28;20420;-70
2022/10/17 04:38:26;;;;;;;15.57;13.97;;;;;;;;;;5058193;28;20643;-70
2022/10/17 04:40:52;;;;;;;23.37;15.97;;;;;;;;;;5075759;28;20362;-71
2022/10/17 04:43:18;;;;;;;18.47;15.57;;;;;;;;;;5075456;28;20305;-70
2022/10/17 04:45:44;;;;;;;19.53;15.93;;;;;;;;;;5058158;28;20603;-70
2022/10/17 04:48:10;;;;;;;19.03;16.33;;;;;;;;;;5075045;28;20283;-70
2022/10/17 04:50:37;;;;;;;20.83;16.20;;;;;;;;;;5057137;28;20271;-70
2022/10/17 04:53:03;;;;;;;20.17;17.17;;;;;;;;;;5075505;28;20313;-70
2022/10/17 04:55:29;;;;;;;16.70;14.80;;;;;;;;;;5074875;28;20283;-70
2022/10/17 04:57:55;;;;;;;20.37;16.63;;;;;;;;;;5056884;28;20330;-70
2022/10/17 05:00:21;;;;;;;18.30;14.77;;;;;;;;;;5074861;28;20365;-70
2022/10/17 05:02:47;;;;;;;19.43;16.43;;;;;;;;;;5057300;28;20424;-70
2022/10/17 05:05:13;;;;;;;20.50;15.77;;;;;;;;;;5074804;28;20343;-70
2022/10/17 05:07:40;;;;;;;20.07;16.27;;;;;;;;;;5057212;28;20282;-70
2022/10/17 05:10:06;;;;;;;20.13;16.23;;;;;;;;;;5074579;28;20283;-70
2022/10/17 05:12:32;;;;;;;18.30;16.00;;;;;;;;;;5075244;28;20335;-70
2022/10/17 05:14:59;;;;;;;18.17;16.20;;;;;;;;;;5074693;28;20362;-70
2022/10/17 05:17:25;;;;;;;17.50;15.30;;;;;;;;;;5074834;28;20295;-70
2022/10/17 05:19:51;;;;;;;19.87;16.37;;;;;;;;;;5074522;28;20311;-71
2022/10/17 05:22:17;;;;;;;19.23;15.73;;;;;;;;;;5074528;28;20361;-70
2022/10/17 05:24:43;;;;;;;19.33;15.87;;;;;;;;;;5074530;28;20692;-70
2022/10/17 05:27:09;;;;;;;21.13;15.93;;;;;;;;;;5074046;28;20766;-70
2022/10/17 05:29:35;;;;;;;21.93;17.37;;;;;;;;;;5074099;28;20329;-70
2022/10/17 05:32:01;;;;;;;18.33;16.20;;;;;;;;;;5074862;28;20279;-70
2022/10/17 05:34:27;;;;;;;29.67;16.67;;;;;;;;;;5074131;28;20314;-70
2022/10/17 05:36:53;;;;;;;19.23;15.77;;;;;;;;;;5074132;28;20840;-71
2022/10/17 05:39:20;;;;;;;20.87;17.63;;;;;;;;;;5074713;28;20283;-70
2022/10/17 05:41:46;;;;;;;19.20;16.93;;;;;;;;;;5039886;28;20297;-70
2022/10/17 05:44:12;;;;;;;18.70;16.67;;;;;;;;;;5074017;28;20628;-71
2022/10/17 05:46:39;;;;;;;23.07;15.97;;;;;;;;;;5056094;28;20635;-71
2022/10/17 05:49:05;;;;;;;19.20;16.10;;;;;;;;;;5074139;28;20275;-72
2022/10/17 05:51:32;;;;;;;20.83;17.37;;;14.00;99.90;;;;;;5056002;28;20378;-72
2022/10/17 05:53:58;;;;;;;19.77;16.53;;;14.00;99.90;;;;;;5074055;28;20288;-72
2022/10/17 05:56:24;;;;;;;18.00;16.00;;;14.00;99.90;;;;;;5074255;28;20294;-69
2022/10/17 05:58:49;;;;;;;19.97;16.23;;;14.00;99.90;;;;;;5073780;28;20090;-70
2022/10/17 06:01:15;;;;;;;20.83;15.57;;;14.00;99.90;;;;;;5074286;28;20056;-70
2022/10/17 06:03:41;;;;;;;22.13;16.20;;;14.00;99.90;;;;;;5073706;28;20044;-70
2022/10/17 06:06:15;;;;;;;21.03;16.83;;;14.00;99.90;;;;;;5073487;28;20275;-71
2022/10/17 06:08:41;;;;;;;21.60;15.13;;;14.00;99.90;;;;;;5074528;28;20060;-70
2022/10/17 06:11:07;;;;;;;18.57;14.77;;;14.00;99.90;;;;;;5073585;28;20282;-70
2022/10/17 06:13:33;;;;;;;20.60;16.13;;;14.10;99.90;;;;;;5073560;28;20282;-70
2022/10/17 06:15:58;;;;;;;18.90;15.63;;;14.10;99.90;;;;;;5073611;28;20044;-71
2022/10/17 06:18:25;;;;;;;19.83;14.80;;;14.20;99.90;;;;;;5073547;28;20075;-70
2022/10/17 06:20:51;;;;;;;16.73;14.50;;;14.20;99.90;;;;;;5055780;28;20050;-70
2022/10/17 06:23:17;;;;;;;20.87;14.70;;;14.30;99.90;;;;;;5074063;28;20286;-71
2022/10/17 06:25:43;;;;;;;17.70;13.30;;;14.30;99.90;;;;;;5039230;28;20290;-70
2022/10/17 06:28:10;;;;;;;18.17;14.03;;;;;;;;;;5073367;28;20037;-71
2022/10/17 06:30:40;;;;;;;17.27;13.30;;;14.40;99.90;;;;;;5055202;28;20063;-70
2022/10/17 06:33:06;;;;;;;15.77;13.57;;;;;;;;;;5073282;28;20750;-70
2022/10/17 06:35:32;;;;;;;18.00;13.00;;;14.50;99.90;;;;;;5055700;28;20298;-70
2022/10/17 06:37:57;;;;;;;19.47;13.73;;;14.50;99.90;;;;;;5073246;28;20291;-70
2022/10/17 06:40:23;;;;;;;22.23;13.87;;;;;;;;;;5072989;28;20491;-70
2022/10/17 06:42:50;;;;;;;19.67;13.17;;;;;;;;;;5073321;28;20439;-70
2022/10/17 06:45:16;;;;;;;16.67;12.77;;;;;;;;;;5075501;28;20275;-70
2022/10/17 06:47:42;;;;;;;14.77;11.63;;;;;;;;;;5079919;28;20274;-70
2022/10/17 06:50:08;;;;;;;15.13;12.83;;;;;;;;;;5080388;28;20600;-71
2022/10/17 06:52:34;;;;;;;17.57;11.70;;;;;;;;;;5062407;28;20286;-70
2022/10/17 06:55:00;;;;;;;15.80;11.60;;;;;;;;;;5062112;28;20374;-70
2022/10/17 06:57:27;;;;;;;18.60;11.83;;;;;;;;;;5079740;28;20299;-70
2022/10/17 06:59:54;;;;;;;17.63;12.87;;;;;;;;;;5080353;28;20271;-70
2022/10/17 07:02:22;;;;;;;16.13;11.77;;;;;;;;;;5061948;28;20283;-70
2022/10/17 07:04:48;;;;;;;14.37;10.90;;;;;;;;;;5079781;28;20339;-70
2022/10/17 07:07:14;;;;;;;15.57;11.63;;;;;;;;;;5079701;28;20274;-70
2022/10/17 07:09:40;;;;;;;19.67;10.73;;;;;;;;;;5062029;28;20290;-70
2022/10/17 07:12:07;;;;;;;17.67;10.60;;;;;;;;;;5079669;28;20286;-71
2022/10/17 07:14:34;;;;;;;13.73;10.23;;;;;;;;;;5080430;28;20413;-70
2022/10/17 07:17:01;;;;;;;15.47;10.37;;;;;;;;;;5079515;28;20385;-70
2022/10/17 07:19:27;;;;;;;16.00;10.47;;;;;;;;;;5079605;28;20789;-71
2022/10/17 07:21:53;;;;;;;12.87;9.80;;;;;;;;;;5079675;28;20312;-70
2022/10/17 07:24:19;;;;;;;15.30;10.50;;;;;;;;;;5061786;28;20113;-71
2022/10/17 07:26:45;;;;;;;17.17;10.00;;;;;;;;;;5079843;28;20051;-70
2022/10/17 07:29:12;;;;;;;13.83;10.03;;;;;;;;;;5061907;28;20408;-71
2022/10/17 07:31:38;;;;;;;10.87;9.60;;;;;;;;;;5079583;28;20057;-71
2022/10/17 07:34:04;;;;;;;20.50;9.57;;;;;;;;;;5079813;28;20056;-70
2022/10/17 07:36:30;;;;;;;13.80;9.07;;;;;;;;;;5061947;28;20060;-70
2022/10/17 07:38:56;;;;;;;15.73;9.57;;;;;;;;;;5061495;28;20384;-71
2022/10/17 07:41:22;;;;;;;16.10;9.73;;;;;;;;;;5079410;28;20113;-71
2022/10/17 07:43:48;;;;;;;16.50;10.73;;;;;;;;;;5080218;28;20040;-70
2022/10/17 07:46:14;;;;;;;12.97;9.73;;;;;;;;;;5079958;28;20052;-71
2022/10/17 07:48:40;;;;;;;15.00;10.67;;;;;;;;;;5061657;28;20101;-70
2022/10/17 07:51:07;;;;;;;14.67;9.53;;;;;;;;;;5079321;28;20048;-70
2022/10/17 07:53:37;;;;;;;17.07;9.53;;;;;;;;;;5079325;28;20133;-71
2022/10/17 07:56:05;;;;;;;15.13;8.97;;;;;;;;;;5079962;28;20354;-71
2022/10/17 07:58:31;;;;;;;12.00;9.17;;;;;;;;;;5075908;28;20396;-71
2022/10/17 08:01:01;;;;;;;10.47;8.40;;;;;;;;;;5075995;28;20076;-70
2022/10/17 08:03:27;;;;;;;12.23;8.33;;;;;;;;;;5076614;28;20048;-71
2022/10/17 08:05:56;;;;;;;10.77;8.83;;;;;;;;;;5075996;28;20041;-71
2022/10/17 08:08:22;;;;;;;14.33;9.37;;;;;;;;;;5075887;28;20037;-71
2022/10/17 08:10:48;;;;;;;14.07;9.60;;;;;;;;;;5075920;28;20049;-71
2022/10/17 08:13:15;;;;;;;15.90;8.80;;;;;;;;;;5075915;28;20109;-71
2022/10/17 08:15:41;;;;;;;14.17;9.03;;;;;;;;;;5075906;28;20203;-70
2022/10/17 08:18:07;;;;;;;13.30;9.17;;;;;;;;;;5075775;28;20052;-71
2022/10/17 08:20:33;;;;;;;13.07;8.90;;;;;;;;;;5075964;28;20044;-71
2022/10/17 08:22:59;;;;;;;15.83;9.20;;;;;;;;;;5075743;28;20048;-70
2022/10/17 08:25:25;;;;;;;11.60;8.83;;;16.40;99.90;;;;;;5075635;28;20101;-70
2022/10/17 08:27:50;;;;;;;13.00;8.83;;;16.40;99.90;;;;;;5075580;28;20561;-70
2022/10/17 08:30:16;;;;;;;11.87;9.17;;;16.30;99.90;;;;;;5075444;28;20503;-71
2022/10/17 08:32:42;;;;;;;10.93;9.57;;;16.20;99.90;;;;;;5075729;28;20403;-70
2022/10/17 08:35:08;;;;;;;12.30;8.60;;;16.20;99.90;;;;;;5058499;28;20055;-70
2022/10/17 08:37:34;;;;;;;16.83;9.23;;;16.20;99.90;;;;;;5075149;28;20044;-71
2022/10/17 08:40:00;;;;;;;13.60;9.60;;;16.20;99.90;;;;;;5057567;28;20140;-70
2022/10/17 08:42:44;;;;;;;11.97;10.50;;;16.20;99.90;;;;;;5058055;28;20045;-70
2022/10/17 08:45:15;;;;;;;12.90;10.23;;;16.20;99.90;;;;;;5075879;28;20456;-70
2022/10/17 08:47:47;;;;;;;12.40;10.40;;;16.20;99.90;;;;;;5075730;28;20046;-70
2022/10/17 08:50:32;;;;;;;16.63;10.37;;;16.20;99.90;;;;;;5075146;28;20052;-70
2022/10/17 08:53:15;;;;;;;13.05;10.27;;;16.20;99.90;;;;;;5075039;28;20457;-70
2022/10/17 08:55:52;;;;;;;13.63;11.43;;;16.20;99.90;;;;;;5075379;28;20048;-70
2022/10/17 08:58:20;;;;;;;15.33;11.23;;;16.30;99.90;;;;;;5057977;28;20048;-71
2022/10/17 09:01:02;;;;;;;13.70;10.37;;;16.30;99.90;;;;;;5057085;28;20045;-71
2022/10/17 09:03:44;;;;;;;17.63;11.17;;;16.30;99.90;;;;;;5074856;28;20496;-71
2022/10/17 09:06:28;;;;;;;15.00;11.50;;;16.20;99.90;;;;;;5074905;28;20048;-70
2022/10/17 09:09:25;;;;;;;12.20;10.03;;;16.20;99.90;;;;;;5075155;28;20177;-70
2022/10/17 09:12:21;;;;;;;12.83;10.87;;;16.20;99.90;;;;;;5074752;28;20278;-71
2022/10/17 09:14:55;;;;;;;;;;;16.20;99.90;;;;;;5075776;28;20106;-70
2022/10/17 09:18:06;;;;;;;11.57;9.90;;;16.20;99.90;;;;;;5056853;28;20376;-71
2022/10/17 09:21:17;;;;;;;15.70;10.80;;;16.20;99.90;;;;;;5019164;28;20118;-71
2022/10/17 09:23:56;;;;;;;14.03;9.53;;;16.20;99.90;;;;;;5011981;28;20056;-70
2022/10/17 09:26:23;;;;;;;14.43;10.93;;;16.20;99.90;;;;;;5074491;28;20130;-71
2022/10/17 09:28:55;;;;;;;14.33;10.60;;;16.20;99.90;;;;;;5074405;28;20496;-70
2022/10/17 09:31:23;;;;;;;20.07;10.93;;;16.20;99.90;;;;;;5056337;28;20061;-70
2022/10/17 09:33:55;;;;;;;15.37;10.73;;;16.20;99.90;;;;;;5073954;28;20531;-69
2022/10/17 09:36:34;;;;;;;15.37;11.17;;;16.20;99.90;;;;;;5075070;28;20059;-69
2022/10/17 09:39:12;;;;;;;21.87;12.17;;;16.10;99.90;;;;;;5074641;28;20045;-69
2022/10/17 09:41:44;;;;;;;20.37;12.97;;;16.10;99.90;;;;;;5074651;28;20055;-70
2022/10/17 09:44:17;;;;;;;21.13;13.53;;;16.10;99.90;;;;;;5074033;28;20052;-70
2022/10/17 09:47:03;;;;;;;18.53;12.00;;;16.10;99.90;;;;;;5073973;28;20052;-70
2022/10/17 09:49:41;;;;;;;19.33;14.20;;;16.10;99.90;;;;;;5074009;28;20104;-70
2022/10/17 09:52:27;;;;;;;20.27;12.53;;;16.10;99.90;;;;;;5073995;28;20159;-70
2022/10/17 09:55:17;;;;;;;17.43;12.37;;;16.10;99.90;;;;;;5073955;28;20460;-70
2022/10/17 09:58:00;;;;;;;20.37;13.43;;;16.10;99.90;;;;;;5073822;28;20075;-71
2022/10/17 10:00:29;;;;;;;17.93;12.57;;;16.00;99.90;;;;;;5074367;28;20048;-71
2022/10/17 10:03:24;;;;;;;15.57;12.20;;;16.00;99.90;;;;;;5073790;28;20040;-70
2022/10/17 10:06:02;;;;;;;20.27;13.83;;;16.00;99.90;;;;;;5036357;28;20048;-70
2022/10/17 10:08:34;;;;;;;17.43;12.73;;;16.00;99.90;;;;;;5073714;28;20040;-71
2022/10/17 10:11:06;;;;;;;19.53;13.37;;;16.00;99.90;;;;;;5056859;28;20079;-71
2022/10/17 10:13:33;;;;;;;19.77;13.77;;;16.00;99.90;;;;;;5055718;28;20045;-71
2022/10/17 10:16:31;;;;;;;15.63;12.80;;;16.10;99.90;;;;;;5055833;28;20131;-71
2022/10/17 10:18:57;;;;;;;19.87;12.00;;;16.00;99.90;;;;;;5073496;28;20469;-71
2022/10/17 10:21:26;;;;;;;19.70;14.27;;;16.00;99.90;;;;;;5072731;28;20101;-70
2022/10/17 10:24:03;;;;;;;24.90;16.70;;;16.10;99.90;;;;;;5073665;28;20469;-71
2022/10/17 10:26:37;;;;;;;22.27;15.83;;;16.10;99.90;;;;;;5073549;28;20045;-71
2022/10/17 10:29:18;;;;;;;23.93;17.73;;;;;;;;;;5074195;28;20440;-70
2022/10/17 10:31:45;;;;;;;22.47;16.30;;;;;;;;;;5055197;28;20473;-70
2022/10/17 10:34:27;;;;;;;28.33;18.37;;;16.20;99.90;;;;;;5073422;28;20056;-70
2022/10/17 10:37:03;;;;;;;25.97;22.17;;;16.20;99.90;;;;;;5073898;28;20127;-70
2022/10/17 10:39:41;;;;;;;19.67;15.83;;;16.20;99.90;;;;;;5073354;28;20044;-71
2022/10/17 10:42:18;;;;;;;18.60;14.90;;;16.20;99.90;;;;;;5073664;28;20086;-70
2022/10/17 10:44:45;;;;;;;22.47;15.33;;;16.20;99.90;;;;;;5073356;28;20051;-71
2022/10/17 10:47:16;;;;;;;21.80;14.43;;;16.20;99.90;;;;;;5073007;28;20512;-70
2022/10/17 10:49:42;;;;;;;23.67;15.43;;;16.20;99.90;;;;;;5073291;28;20173;-70
2022/10/17 10:52:17;;;;;;;20.90;15.23;;;16.20;99.90;;;;;;5073303;28;20158;-70
2022/10/17 10:54:55;;;;;;;22.85;15.57;;;16.20;99.90;;;;;;5056303;28;20053;-70
2022/10/17 10:57:27;;;;;;;19.53;14.97;;;16.20;99.90;;;;;;5073795;28;20083;-70
2022/10/17 10:59:57;;;;;;;18.53;14.63;;;16.30;99.90;;;;;;5072787;28;20489;-70
2022/10/17 11:02:37;;;;;;;21.27;15.07;;;16.30;99.90;;;;;;5073572;28;20048;-70
2022/10/17 11:05:24;;;;;;;22.77;16.57;;;16.30;99.90;;;;;;5073634;28;20127;-70
2022/10/17 11:08:19;;;;;;;19.40;13.30;;;16.30;99.90;;;;;;5073847;28;20041;-70
2022/10/17 11:10:58;;;;;;;16.33;12.82;;;16.20;99.90;;;;;;5055901;28;20052;-70
2022/10/17 11:13:33;;;;;;;14.40;11.50;;;16.30;99.90;;;;;;5073693;28;20102;-70
2022/10/17 11:16:03;;;;;;;13.30;10.77;;;16.30;99.90;;;;;;5073632;28;20044;-70
2022/10/17 11:18:56;;;;;;;15.87;11.20;;;16.20;99.90;;;;;;5055230;28;20044;-70
2022/10/17 11:21:48;;;;;;;15.20;10.60;;;16.30;99.90;;;;;;5054861;28;20051;-70
2022/10/17 11:24:19;;;;;;;16.70;11.63;;;16.30;99.90;;;;;;5034049;28;20059;-70
2022/10/17 11:26:54;;;;;;;13.67;10.40;;;16.30;99.90;;;;;;5038808;28;20114;-70
2022/10/17 11:29:24;;;;;;;14.07;9.93;;;16.40;99.90;;;;;;5055914;28;20045;-70
2022/10/17 11:31:53;;;;;;;13.30;10.43;;;16.40;99.90;;;;;;5056504;28;20056;-70
2022/10/17 11:34:26;;;;;;;12.47;8.90;;;16.40;99.90;;;;;;5077099;28;20489;-70
2022/10/17 11:37:10;;;;;;;14.73;9.90;;;16.50;99.90;;;;;;5077343;28;20063;-70
2022/10/17 11:39:54;;;;;;;11.30;8.77;;;16.50;99.90;;;;;;5077088;28;20045;-71
2022/10/17 11:42:28;;;;;;;15.20;9.53;;;16.50;99.90;;;;;;5077138;28;20053;-70
2022/10/17 11:45:01;;;;;;;12.57;8.83;;;16.50;99.90;;;;;;5076481;28;20404;-70
2022/10/17 11:47:35;;;;;;;13.10;8.30;;;16.50;99.90;;;;;;5076683;28;20352;-70
2022/10/17 11:50:31;;;;;;;11.07;8.60;;;16.50;99.90;;;;;;5058569;28;20411;-70
2022/10/17 11:52:59;;;;;;;;;;;16.50;99.90;;;;;;5076688;28;20052;-70
2022/10/17 11:55:29;;;;;;;12.67;8.77;;;16.40;99.90;;;;;;5076564;28;19927;-70
2022/10/17 11:58:05;;;;;;;16.33;9.27;;;;;;;;;;5076445;28;20088;-70
2022/10/17 12:00:53;;;;;;;13.57;9.87;;;16.60;99.90;;;;;;5058863;28;20469;-70
2022/10/17 12:03:56;;;;;;;13.50;9.00;;;16.60;99.90;;;;;;5076060;28;20047;-70
2022/10/17 12:06:31;;;;;;;13.37;8.80;;;16.80;99.90;;;;;;5058437;28;20059;-70
2022/10/17 12:09:06;;;;;;;12.05;8.18;;;;;;;;;;5076332;28;20045;-69
2022/10/17 12:11:49;;;;;;;13.73;9.10;;;;;;;;;;5076446;28;20044;-70
2022/10/17 12:14:34;;;;;;;10.20;7.03;;;;;;;;;;5075945;28;20064;-69
2022/10/17 12:17:01;;;;;;;11.43;7.13;;;;;;;;;;5075758;28;20048;-70
2022/10/17 12:19:32;;;;;;;8.57;6.10;;;;;;;;;;5075850;28;20040;-70
2022/10/17 12:22:01;;;;;;;9.87;7.23;;;;;;;;;;5058627;28;20048;-70
2022/10/17 12:24:39;;;;;;;9.20;5.93;;;;;;;;;;5075686;28;20044;-70
2022/10/17 12:27:22;;;;;;;7.73;5.80;;;;;;;;;;5075711;28;20044;-70
2022/10/17 12:29:49;;;;;;;9.30;6.00;;;;;;;;;;5057927;28;20487;-70
2022/10/17 12:32:15;;;;;;;7.60;4.93;;;;;;;;;;5074948;28;20060;-70
2022/10/17 12:34:52;;;;;;;9.10;4.83;;;;;;;;;;5075739;28;20056;-70
2022/10/17 12:37:37;;;;;;;9.20;5.07;;;;;;;;;;5075615;28;20127;-69
2022/10/17 12:40:03;;;;;;;10.05;4.60;;;;;;;;;;5075370;28;20048;-69
2022/10/17 12:42:30;;;;;;;8.33;4.73;;;;;;;;;;5074980;28;20040;-70
2022/10/17 12:44:56;;;;;;;9.60;5.00;;;;;;;;;;5075373;28;20040;-70
2022/10/17 12:47:37;;;;;;;10.27;4.93;;;;;;;;;;5075262;28;20434;-70
2022/10/17 12:50:03;;;;;;;8.43;4.53;;;;;;;;;;5075274;28;20045;-70
2022/10/17 12:52:33;;;;;;;9.73;5.07;;;;;;;;;;5075283;28;20049;-70
2022/10/17 12:55:02;;;;;;;11.97;5.10;;;;;;;;;;5075154;28;20052;-69
2022/10/17 12:57:55;;;;;;;11.60;4.83;;;;;;;;;;5075536;28;20044;-69
2022/10/17 13:00:21;;;;;;;9.57;4.83;;;;;;;;;;5070761;28;20056;-69
2022/10/17 13:02:48;;;;;;;11.27;4.70;;;;;;;;;;5075005;28;20044;-69
2022/10/17 13:05:34;;;;;;;10.40;4.47;;;;;;;;;;5075202;28;20389;-69
2022/10/17 13:08:03;;;;;;;9.63;5.17;;;;;;;;;;5074800;28;20468;-69
2022/10/17 13:10:31;;;;;;;8.40;4.27;;;;;;;;;;5074777;28;20518;-69
2022/10/17 13:13:05;;;;;;;8.13;4.30;;;;;;;;;;5074624;28;20134;-69
2022/10/17 13:15:31;;;;;;;8.40;4.23;;;;;;;;;;5057424;28;20067;-69
2022/10/17 13:17:58;;;;;;;9.27;3.83;;;;;;;;;;5057586;28;20052;-69
2022/10/17 13:20:27;;;;;;;6.90;3.87;;;;;;;;;;5074523;28;20056;-69
2022/10/17 13:22:53;;;;;;;12.13;4.00;;;;;;;;;;5074557;28;20131;-70
2022/10/17 13:25:20;;;;;;;9.30;3.77;;;;;;;;;;5074437;28;20048;-69
2022/10/17 13:27:47;;;;;;;9.20;4.47;;;;;;;;;;5056634;28;20401;-70
2022/10/17 13:30:35;;;;;;;7.47;3.70;;;;;;;;;;5075189;28;20054;-69
2022/10/17 13:33:01;;;;;;;6.67;4.47;;;;;;;;;;5074164;28;20231;-70
2022/10/17 13:35:29;;;;;;;10.17;4.93;;;;;;;;;;5074839;28;20230;-70
2022/10/17 13:37:56;;;;;;;9.37;5.00;;;;;;;;;;5074178;28;20048;-69
2022/10/17 13:40:27;;;;;;;11.47;4.67;;;;;;;;;;5074203;28;20044;-70
2022/10/17 13:42:54;;;;;;;8.03;5.03;;;;;;;;;;5074210;28;20052;-70
2022/10/17 13:45:23;;;;;;;8.40;4.87;;;;;;;;;;5074139;28;20106;-69
2022/10/17 13:47:49;;;;;;;9.87;7.17;;;;;;;;;;5074248;28;20051;-70
2022/10/17 13:50:19;;;;;;;14.37;10.90;;;;;;;;;;5074032;28;20139;-69
2022/10/17 13:52:45;;;;;;;12.07;5.70;;;;;;;;;;5074006;28;20052;-70
2022/10/17 13:55:15;;;;;;;35.57;19.10;;;;;;;;;;5074305;28;20052;-70
2022/10/17 13:57:41;;;;;;;32.10;17.80;;;;;;;;;;5074131;28;20045;-70
2022/10/17 14:00:14;;;;;;;22.47;13.87;;;;;;;;;;5074337;28;20044;-70
2022/10/17 14:02:41;;;;;;;8.70;4.83;;;;;;;;;;5074430;28;20056;-70
2022/10/17 14:05:07;;;;;;;9.47;4.27;;;;;;;;;;5073814;28;20045;-70
2022/10/17 14:07:38;;;;;;;6.23;3.37;;;;;;;;;;5056415;28;20055;-70
2022/10/17 14:10:05;;;;;;;7.00;3.10;;;;;;;;;;5074220;28;20090;-70